Terminal Aerodrome Forecast
Issued by NWS

Home | Current Version | Previous Version | Text Only | Print | Product List | Glossary Off
Versions: 1 2 3 4 5 6 7 8 9 10 11 12 13 14 15 16 17 18 19 20 21 22 23 24 25 26 27 28 29 30 31 32 33

000
FTUS43 KTOP 010300 AAD
TAFFOE
TAF AMD
KFOE 010327Z 0103/0124 18010G21KT 3SM TSRA BR BKN050CB
      TEMPO 0103/0104 VRB15G30KT 1SM +TSRA BKN015CB
     FM010500 19010KT P6SM RA VCTS SCT040CB BKN100
      TEMPO 0106/0109 2SM TSRA SCT015 BKN025CB
     FM011300 33008KT P6SM SCT030 BKN150=

USA.gov is the U.S. government's official web portal to all federal, state and local government web resources and services.